Time;durP1;ratioP1;P1;durP2;ratioP2;P2;SDS_P1;SDS_P2;PMS_P1;PMS_P2;Temp;Humidity;BMP_temperature;BMP_pressure;BME280_temperature;BME280_humidity;BME280_pressure;Samples;Min_cycle;Max_cycle;Signal;HPM_P1;HPM_P2
2022/05/08 05:56:28;;;;;;;4.70;4.30;;;21.90;70.90;;;;;;5088905;28;21132;-50
2022/05/08 05:59:00;;;;;;;5.27;4.87;;;21.80;69.10;;;;;;5088883;28;20474;-52
2022/05/08 06:01:33;;;;;;;5.07;4.60;;;21.80;69.60;;;;;;5087712;28;20550;-54
2022/05/08 06:04:00;;;;;;;4.20;4.00;;;21.80;70.10;;;;;;5089037;28;20251;-65
2022/05/08 06:06:27;;;;;;;3.90;3.60;;;21.80;69.50;;;;;;5089081;28;20446;-53
2022/05/08 06:08:53;;;;;;;4.50;4.20;;;21.80;69.30;;;;;;5094323;22;20491;-62
2022/05/08 06:11:20;;;;;;;4.60;4.30;;;21.80;70.00;;;;;;5052674;28;20447;-61
2022/05/08 06:13:48;;;;;;;4.33;4.03;;;21.80;70.20;;;;;;5048769;28;20444;-62
2022/05/08 06:16:15;;;;;;;5.20;4.40;;;21.80;70.20;;;;;;5048568;28;20479;-62
2022/05/08 06:18:43;;;;;;;6.30;4.23;;;21.70;70.30;;;;;;5048338;28;20468;-61
2022/05/08 06:21:10;;;;;;;4.80;4.40;;;21.80;70.40;;;;;;5048618;28;20452;-61
2022/05/08 06:23:36;;;;;;;4.70;4.30;;;21.80;70.30;;;;;;5048481;28;20812;-62
2022/05/08 06:26:03;;;;;;;4.10;3.80;;;21.80;70.30;;;;;;5048357;28;20443;-61
2022/05/08 06:28:31;;;;;;;4.70;4.40;;;21.80;70.20;;;;;;5048005;28;20471;-62
2022/05/08 06:30:59;;;;;;;4.70;4.30;;;21.80;70.10;;;;;;5047639;28;20502;-66
2022/05/08 06:33:26;;;;;;;4.60;4.20;;;21.90;70.10;;;;;;5042800;28;20440;-66
2022/05/08 06:35:54;;;;;;;4.30;4.07;;;21.90;70.10;;;;;;5028232;28;20725;-61
2022/05/08 06:38:20;;;;;;;4.20;3.90;;;21.90;69.50;;;;;;5028226;28;20476;-62
2022/05/08 06:40:47;;;;;;;5.40;3.57;;;22.00;70.00;;;;;;5028243;28;20935;-62
2022/05/08 06:43:14;;;;;;;4.60;4.30;;;21.90;70.30;;;;;;5039527;28;20448;-62
2022/05/08 06:45:40;;;;;;;4.33;4.03;;;22.00;70.40;;;;;;5047692;28;20198;-63
2022/05/08 06:48:09;;;;;;;4.20;3.80;;;22.00;70.70;;;;;;5047794;28;20471;-63
2022/05/08 06:50:36;;;;;;;5.37;4.90;;;22.00;71.00;;;;;;5048273;28;20449;-62
2022/05/08 06:53:04;;;;;;;4.57;4.00;;;22.00;71.20;;;;;;5048692;28;20789;-62
2022/05/08 06:55:31;;;;;;;3.70;3.50;;;22.00;71.30;;;;;;5048509;28;20571;-60
2022/05/08 06:57:57;;;;;;;4.10;3.80;;;22.00;71.50;;;;;;5047858;28;20471;-61
2022/05/08 07:03:10;;;;;;;4.33;4.03;;;22.00;71.80;;;;;;5048359;28;20205;-61
2022/05/08 07:05:40;;;;;;;4.40;3.97;;;22.00;71.20;;;;;;5047515;28;20440;-61
2022/05/08 07:08:07;;;;;;;3.60;3.40;;;22.10;71.40;;;;;;5034091;28;20483;-62
2022/05/08 07:10:34;;;;;;;3.40;3.20;;;22.00;71.40;;;;;;5034608;28;20993;-62
2022/05/08 07:13:01;;;;;;;3.90;3.60;;;22.00;71.50;;;;;;5034782;28;20449;-63
2022/05/08 07:15:27;;;;;;;3.60;3.33;;;22.10;71.30;;;;;;5034637;28;20484;-63
2022/05/08 07:17:54;;;;;;;4.23;3.93;;;22.10;71.00;;;;;;5034144;28;20465;-63
2022/05/08 07:20:23;;;;;;;4.77;3.70;;;22.10;71.10;;;;;;5034427;28;20446;-57
2022/05/08 07:22:50;;;;;;;3.80;3.50;;;22.00;71.40;;;;;;5028971;28;20450;-62
2022/05/08 07:25:17;;;;;;;3.27;2.97;;;22.00;71.50;;;;;;5014536;28;21031;-62
2022/05/08 07:27:45;;;;;;;4.27;3.87;;;22.10;72.00;;;;;;5023359;28;20445;-60
2022/05/08 07:30:12;;;;;;;4.13;3.83;;;22.00;71.50;;;;;;5034089;28;20441;-58
2022/05/08 07:32:39;;;;;;;3.90;3.60;;;22.10;70.90;;;;;;5034021;28;20441;-59
2022/05/08 07:37:53;;;;;;;5.20;3.90;;;22.10;70.60;;;;;;5034192;28;20464;-64
2022/05/08 07:40:19;;;;;;;3.13;2.93;;;22.10;71.40;;;;;;5034528;28;20805;-60
2022/05/08 07:42:46;;;;;;;5.50;3.80;;;22.10;71.20;;;;;;5034409;28;20964;-65
2022/05/08 07:45:13;;;;;;;3.70;3.40;;;22.10;71.10;;;;;;5034361;28;20452;-61
2022/05/08 07:47:40;;;;;;;3.93;3.63;;;22.10;71.20;;;;;;5033541;28;20446;-64
2022/05/08 07:50:08;;;;;;;3.30;3.00;;;22.10;71.90;;;;;;5034042;28;20491;-63
2022/05/08 07:52:38;;;;;;;4.17;3.73;;;22.10;72.20;;;;;;5034097;28;20448;-60
2022/05/08 07:55:08;;;;;;;3.60;3.30;;;22.10;72.10;;;;;;5034088;28;20823;-62
2022/05/08 07:57:35;;;;;;;3.80;3.50;;;22.00;72.10;;;;;;5033358;28;20452;-63
2022/05/08 08:00:03;;;;;;;4.60;4.20;;;22.10;72.60;;;;;;5033494;28;20528;-66
2022/05/08 08:02:31;;;;;;;4.23;3.63;;;22.20;72.90;;;;;;5033508;28;20445;-62
2022/05/08 08:04:58;;;;;;;4.33;3.90;;;22.20;72.10;;;;;;5033426;28;20813;-63
2022/05/08 08:07:24;;;;;;;3.00;2.80;;;22.20;71.80;;;;;;5032852;28;20826;-63
2022/05/08 08:09:52;;;;;;;2.90;2.70;;;22.30;71.60;;;;;;5033243;28;20810;-60
2022/05/08 08:12:20;;;;;;;3.10;2.90;;;22.30;71.00;;;;;;5033348;28;20453;-61
2022/05/08 08:14:49;;;;;;;3.67;3.30;;;22.30;70.70;;;;;;5033215;28;20445;-60
2022/05/08 08:17:16;;;;;;;3.63;3.40;;;22.30;70.50;;;;;;5031010;28;20445;-59
2022/05/08 08:19:43;;;;;;;2.57;2.37;;;22.30;70.30;;;;;;5032535;28;20830;-63
2022/05/08 08:22:10;;;;;;;3.37;3.07;;;22.30;70.20;;;;;;5032758;28;20445;-64
2022/05/08 08:24:37;;;;;;;5.60;2.93;;;22.30;70.10;;;;;;5032762;28;20449;-65
2022/05/08 08:27:04;;;;;;;2.77;2.60;;;22.30;69.90;;;;;;5032507;28;20482;-63
2022/05/08 08:29:33;;;;;;;3.10;2.33;;;22.30;69.70;;;;;;5033000;28;20818;-62
2022/05/08 08:32:00;;;;;;;2.93;2.73;;;22.30;69.60;;;;;;5033014;28;20532;-62
2022/05/08 08:34:27;;;;;;;6.43;2.83;;;22.30;69.50;;;;;;5032869;28;20455;-61
2022/05/08 08:36:53;;;;;;;3.00;2.80;;;22.40;69.90;;;;;;5032477;28;20489;-63
2022/05/08 08:39:21;;;;;;;12.67;4.40;;;22.40;69.30;;;;;;5012988;28;20831;-62
2022/05/08 08:42:04;;;;;;;2.33;2.20;;;22.30;69.10;;;;;;5012899;28;20446;-61
2022/05/08 08:50:05;;;;;;;3.50;3.10;;;22.30;68.90;;;;;;5032679;28;20429;-60
2022/05/08 08:52:32;;;;;;;5.83;3.20;;;22.30;69.00;;;;;;5032564;28;20957;-59
2022/05/08 08:55:00;;;;;;;2.90;2.70;;;22.30;68.80;;;;;;5032392;28;20452;-58
2022/05/08 08:57:26;;;;;;;2.50;2.30;;;22.30;69.60;;;;;;5031804;28;20452;-61
2022/05/08 08:59:54;;;;;;;2.77;2.53;;;22.30;68.80;;;;;;5032442;28;20837;-58
2022/05/08 09:02:22;;;;;;;2.43;2.33;;;22.30;68.80;;;;;;5032243;28;20441;-60
2022/05/08 09:04:50;;;;;;;5.00;2.50;;;22.30;68.80;;;;;;5032266;28;20488;-61
2022/05/08 09:07:38;;;;;;;2.53;2.30;;;22.30;68.60;;;;;;5031763;28;21016;-61
2022/05/08 09:10:12;;;;;;;2.87;2.67;;;22.30;68.80;;;;;;5032225;28;20469;-61
2022/05/08 09:12:41;;;;;;;2.77;2.57;;;22.30;68.50;;;;;;5032396;28;20436;-59
2022/05/08 09:15:23;;;;;;;2.30;2.20;;;22.30;68.50;;;;;;5031950;28;20507;-60
2022/05/08 09:17:52;;;;;;;2.40;2.20;;;22.30;68.40;;;;;;5030819;28;20836;-61
2022/05/08 09:20:27;;;;;;;3.80;2.20;;;22.30;68.60;;;;;;5031772;28;20456;-63
2022/05/08 09:23:06;;;;;;;2.40;2.20;;;22.30;68.50;;;;;;5031950;28;20452;-62
2022/05/08 09:25:54;;;;;;;2.37;2.17;;;22.30;68.20;;;;;;5031810;28;20953;-59
2022/05/08 09:28:23;;;;;;;2.67;2.47;;;22.30;68.40;;;;;;5031757;28;20982;-58
2022/05/08 09:31:02;;;;;;;2.37;2.17;;;22.40;68.50;;;;;;5031543;28;20535;-57
2022/05/08 09:33:32;;;;;;;2.93;2.30;;;22.40;68.60;;;;;;5031906;28;20444;-57
2022/05/08 09:36:01;;;;;;;1.97;1.87;;;22.30;68.10;;;;;;5031592;28;20477;-56
2022/05/08 09:38:50;;;;;;;2.27;2.10;;;22.30;68.00;;;;;;5031655;28;20469;-53
2022/05/08 09:41:20;;;;;;;2.50;2.30;;;22.20;68.10;;;;;;5031706;28;20511;-56
2022/05/08 09:43:48;;;;;;;2.43;2.23;;;22.20;68.10;;;;;;5031554;28;20448;-61
2022/05/08 09:46:17;;;;;;;1.93;1.83;;;22.20;68.60;;;;;;5011740;28;20449;-64
2022/05/08 09:48:44;;;;;;;2.13;2.03;;;22.20;68.60;;;;;;5025011;28;20863;-60
2022/05/08 09:51:12;;;;;;;3.20;2.90;;;22.20;68.80;;;;;;5031389;28;20460;-63
2022/05/08 09:53:41;;;;;;;3.17;2.80;;;22.20;69.00;;;;;;5031503;28;20449;-62
2022/05/08 09:56:09;;;;;;;2.63;2.43;;;22.20;69.20;;;;;;5031128;28;20487;-62
2022/05/08 09:58:36;;;;;;;2.17;2.07;;;22.20;69.20;;;;;;5031436;28;20831;-63
2022/05/08 10:01:04;;;;;;;2.20;2.00;;;22.30;69.20;;;;;;5031275;28;20446;-57
2022/05/08 10:03:32;;;;;;;2.10;2.00;;;22.30;69.90;;;;;;5031514;28;20815;-61
2022/05/08 10:06:01;;;;;;;2.57;2.23;;;22.30;69.40;;;;;;5031142;28;20449;-60
2022/05/08 10:08:30;;;;;;;1.83;1.73;;;22.30;69.10;;;;;;5031176;28;20477;-55
2022/05/08 10:13:56;;;;;;;3.63;2.33;;;22.30;69.20;;;;;;5031605;28;20437;-59
2022/05/08 10:16:52;;;;;;;1.80;1.70;;;22.30;69.30;;;;;;5011513;28;20485;-58
2022/05/08 10:19:55;;;;;;;1.90;1.70;;;22.30;69.40;;;;;;5011606;28;20874;-63
2022/05/08 10:22:25;;;;;;;1.97;1.87;;;22.30;69.40;;;;;;5011712;28;20891;-60
2022/05/08 10:24:55;;;;;;;1.90;1.80;;;22.20;69.30;;;;;;5019760;28;20449;-63
2022/05/08 10:27:24;;;;;;;2.00;1.90;;;22.30;69.60;;;;;;5030887;28;20485;-59
2022/05/08 10:30:31;;;;;;;2.23;2.10;;;22.20;69.50;;;;;;5031199;28;20548;-61
2022/05/08 10:32:57;;;;;;;2.30;1.80;;;22.20;69.60;;;;;;5031415;28;20503;-61
2022/05/08 10:35:26;;;;;;;1.97;1.77;;;22.20;69.60;;;;;;5030970;28;20449;-61
2022/05/08 10:38:21;;;;;;;1.70;1.60;;;22.20;69.70;;;;;;5031008;28;20547;-62
2022/05/08 10:40:48;;;;;;;2.00;1.90;;;22.30;69.80;;;;;;5031271;28;20474;-62
2022/05/08 10:43:32;;;;;;;1.93;1.83;;;22.20;69.70;;;;;;5034470;28;20452;-60
2022/05/08 10:46:22;;;;;;;1.90;1.80;;;22.20;69.70;;;;;;5029448;28;20494;-62
2022/05/08 10:48:49;;;;;;;2.13;1.97;;;22.30;70.20;;;;;;5034714;28;20546;-63
2022/05/08 10:51:16;;;;;;;2.30;2.20;;;22.30;69.80;;;;;;5034928;28;20963;-61
2022/05/08 10:53:44;;;;;;;1.97;1.87;;;22.30;69.70;;;;;;5034576;28;20954;-59
2022/05/08 10:56:11;;;;;;;2.47;2.27;;;22.20;69.50;;;;;;5034576;28;20476;-60
2022/05/08 10:58:40;;;;;;;2.00;1.90;;;22.20;69.50;;;;;;5034581;28;20547;-57
2022/05/08 11:01:09;;;;;;;1.87;1.77;;;22.30;70.20;;;;;;5034643;28;20444;-63
2022/05/08 11:03:36;;;;;;;2.83;2.10;;;22.30;69.60;;;;;;5034646;28;20444;-64
2022/05/08 11:06:04;;;;;;;1.60;1.50;;;22.20;69.40;;;;;;5034140;28;20448;-61
2022/05/08 11:08:33;;;;;;;1.50;1.40;;;22.30;69.50;;;;;;5034028;28;20481;-63
2022/05/08 11:11:04;;;;;;;2.03;1.90;;;22.30;69.40;;;;;;5034412;28;20441;-62
2022/05/08 11:13:51;;;;;;;3.30;2.07;;;22.30;70.70;;;;;;5022687;28;20441;-64
2022/05/08 11:16:36;;;;;;;2.33;1.60;;;22.40;70.10;;;;;;5012929;28;20488;-57
2022/05/08 11:19:05;;;;;;;2.17;1.97;;;22.40;69.50;;;;;;5014654;28;20564;-67
2022/05/08 11:21:31;;;;;;;1.47;1.43;;;22.40;69.40;;;;;;5014489;28;20815;-65
2022/05/08 11:23:58;;;;;;;1.50;1.33;;;22.40;69.70;;;;;;5015401;28;20805;-66
2022/05/08 11:26:31;;;;;;;3.90;2.47;;;22.30;69.60;;;;;;5033789;28;20480;-66
2022/05/08 11:28:59;;;;;;;1.90;1.80;;;22.30;69.50;;;;;;5034281;28;20822;-66
2022/05/08 11:31:27;;;;;;;1.83;1.73;;;22.30;69.40;;;;;;5034051;28;20471;-65
2022/05/08 11:36:39;;;;;;;1.87;1.77;;;22.30;69.10;;;;;;5033573;28;20476;-67
2022/05/08 11:39:10;;;;;;;2.37;2.27;;;22.40;69.10;;;;;;5033758;28;20469;-62
2022/05/08 11:41:40;;;;;;;1.93;1.87;;;22.40;69.00;;;;;;5034088;28;20814;-65
2022/05/08 11:44:20;;;;;;;2.27;1.90;;;22.40;69.00;;;;;;5034656;28;20441;-65
2022/05/08 11:46:48;;;;;;;1.77;1.67;;;22.40;68.70;;;;;;5033803;28;20842;-66
2022/05/08 11:49:15;;;;;;;2.03;1.80;;;22.40;68.70;;;;;;5034027;28;20472;-61
2022/05/08 11:51:44;;;;;;;2.10;1.93;;;22.50;68.90;;;;;;5033645;28;20540;-61
2022/05/08 11:54:21;;;;;;;1.60;1.50;;;22.40;68.40;;;;;;5033665;28;20453;-64
2022/05/08 11:56:51;;;;;;;1.70;1.53;;;22.50;68.70;;;;;;5033144;28;20473;-60
2022/05/08 11:59:20;;;;;;;1.97;1.80;;;22.40;68.50;;;;;;5033620;28;20473;-55
2022/05/08 12:01:52;;;;;;;1.60;1.50;;;22.40;68.60;;;;;;5033712;28;20445;-64
2022/05/08 12:04:24;;;;;;;1.83;1.47;;;22.40;68.30;;;;;;5033869;28;20511;-63
2022/05/08 12:07:02;;;;;;;1.77;1.67;;;22.40;68.40;;;;;;5033552;28;20456;-60
2022/05/08 12:09:30;;;;;;;1.87;1.77;;;22.40;68.30;;;;;;5033545;28;20492;-64
2022/05/08 12:12:17;;;;;;;2.33;2.23;;;22.40;68.30;;;;;;5033399;28;20448;-62
2022/05/08 12:14:44;;;;;;;1.70;1.70;;;22.40;68.50;;;;;;5032897;28;20454;-65
2022/05/08 12:17:10;;;;;;;3.30;2.33;;;22.50;68.30;;;;;;5032976;28;20483;-63
2022/05/08 12:19:37;;;;;;;1.43;1.43;;;22.60;68.20;;;;;;5032114;28;20461;-62
2022/05/08 12:22:18;;;;;;;1.60;1.50;;;22.50;68.00;;;;;;5032935;28;20449;-60
2022/05/08 12:24:45;;;;;;;1.47;1.37;;;22.50;67.90;;;;;;5033034;28;20498;-61
2022/05/08 12:27:13;;;;;;;1.80;1.70;;;22.50;68.50;;;;;;5032794;28;20442;-61
2022/05/08 12:29:44;;;;;;;1.63;1.57;;;22.40;68.30;;;;;;5032655;28;20985;-63
2022/05/08 12:32:11;;;;;;;1.87;1.40;;;22.40;68.30;;;;;;5033026;28;20445;-62
2022/05/08 12:34:40;;;;;;;2.60;1.20;;;22.40;68.20;;;;;;5032867;28;20447;-60
2022/05/08 12:37:07;;;;;;;2.33;1.83;;;22.50;68.40;;;;;;5032569;28;20488;-64
2022/05/08 12:39:34;;;;;;;1.60;1.50;;;22.50;68.10;;;;;;5032581;28;20974;-65
2022/05/08 12:42:01;;;;;;;1.30;1.20;;;22.50;68.20;;;;;;5030286;28;20449;-64
2022/05/08 12:44:29;;;;;;;2.40;1.43;;;22.50;68.10;;;;;;5031593;28;20445;-63
2022/05/08 12:46:56;;;;;;;1.40;1.30;;;22.50;68.00;;;;;;5032411;28;20931;-64
2022/05/08 12:49:23;;;;;;;1.10;1.10;;;22.50;68.00;;;;;;5032438;28;20962;-62
2022/05/08 12:51:50;;;;;;;2.17;2.07;;;22.50;67.80;;;;;;5032473;28;20931;-62
2022/05/08 12:54:17;;;;;;;1.27;1.20;;;22.60;67.80;;;;;;5032176;28;20457;-62
2022/05/08 12:56:44;;;;;;;1.70;1.60;;;22.60;67.60;;;;;;5032191;28;20481;-65
2022/05/08 13:01:57;;;;;;;1.40;1.40;;;22.60;67.60;;;;;;5032511;28;20475;-61
2022/05/08 13:04:24;;;;;;;1.20;1.10;;;22.60;67.20;;;;;;5031628;28;20445;-55
2022/05/08 13:06:51;;;;;;;2.73;1.23;;;22.70;67.00;;;;;;5032043;28;20489;-60
2022/05/08 13:09:18;;;;;;;1.10;1.10;;;22.70;66.80;;;;;;5032008;28;20542;-62
2022/05/08 13:11:45;;;;;;;1.50;1.40;;;22.70;66.70;;;;;;5031996;28;20795;-64
2022/05/08 13:14:12;;;;;;;1.60;1.50;;;22.70;67.00;;;;;;5031834;28;20943;-60
2022/05/08 13:16:39;;;;;;;1.67;1.47;;;22.70;67.00;;;;;;5031815;28;20484;-64
2022/05/08 13:19:07;;;;;;;1.63;1.53;;;22.70;67.10;;;;;;5032111;28;20951;-60
2022/05/08 13:21:36;;;;;;;1.97;1.33;;;22.70;66.90;;;;;;5031639;28;20449;-62
2022/05/08 13:24:03;;;;;;;1.37;1.27;;;22.70;66.50;;;;;;5032074;28;20456;-63
2022/05/08 13:26:30;;;;;;;1.57;1.50;;;22.70;66.40;;;;;;5031830;28;20940;-62
2022/05/08 13:28:57;;;;;;;1.60;1.50;;;22.70;66.30;;;;;;5031805;28;20460;-62
2022/05/08 13:31:24;;;;;;;1.33;1.23;;;22.70;66.30;;;;;;5031595;28;20441;-61
2022/05/08 13:33:51;;;;;;;1.07;1.07;;;22.70;66.40;;;;;;5031867;28;20942;-64
2022/05/08 13:36:19;;;;;;;1.20;1.20;;;22.80;66.10;;;;;;5031611;28;20536;-61
2022/05/08 13:38:46;;;;;;;1.87;1.50;;;22.90;66.00;;;;;;5031634;28;20469;-61
2022/05/08 13:41:15;;;;;;;1.90;1.80;;;22.90;65.60;;;;;;5031839;28;20448;-61
2022/05/08 13:43:42;;;;;;;1.60;1.50;;;22.90;65.40;;;;;;5031467;28;20445;-60
2022/05/08 13:46:09;;;;;;;2.07;1.27;;;22.90;65.30;;;;;;5031300;28;20445;-60
2022/05/08 13:48:37;;;;;;;1.10;1.10;;;22.90;65.20;;;;;;5031578;28;20461;-59
2022/05/08 13:51:04;;;;;;;1.53;1.20;;;22.90;65.20;;;;;;5031760;28;20449;-62
2022/05/08 13:53:33;;;;;;;1.30;1.20;;;22.90;65.20;;;;;;5031473;28;20449;-60
2022/05/08 13:56:02;;;;;;;1.00;1.00;;;22.90;65.30;;;;;;5031319;28;20449;-70
2022/05/08 13:58:28;;;;;;;0.97;0.97;;;23.00;65.40;;;;;;5031822;28;20484;-63
2022/05/08 14:00:57;;;;;;;1.33;1.27;;;23.00;65.80;;;;;;5031691;28;20492;-70
2022/05/08 14:03:24;;;;;;;1.40;1.30;;;23.00;65.80;;;;;;5031596;28;20495;-70
2022/05/08 14:05:52;;;;;;;1.70;1.07;;;23.00;65.90;;;;;;5031373;28;20444;-64
2022/05/08 14:08:20;;;;;;;1.40;1.40;;;23.00;65.80;;;;;;5031537;28;20479;-63
2022/05/08 14:10:48;;;;;;;1.67;1.57;;;23.10;65.90;;;;;;5031493;28;20449;-65
2022/05/08 14:13:15;;;;;;;1.20;1.13;;;23.10;65.80;;;;;;5031513;28;20949;-64
2022/05/08 14:15:42;;;;;;;1.47;1.37;;;23.10;65.90;;;;;;5031369;28;20448;-66
2022/05/08 14:18:09;;;;;;;1.43;1.20;;;23.10;65.90;;;;;;5034847;28;20538;-61
2022/05/08 14:20:36;;;;;;;1.00;1.00;;;23.10;66.60;;;;;;5035185;28;20445;-63
2022/05/08 14:23:03;;;;;;;1.87;1.23;;;23.10;65.60;;;;;;5035763;28;20440;-62
2022/05/08 14:25:30;;;;;;;1.00;1.00;;;23.20;65.10;;;;;;5035408;28;20807;-55
2022/05/08 14:27:59;;;;;;;1.00;1.00;;;23.20;64.80;;;;;;5035078;28;20465;-59
2022/05/08 14:30:25;;;;;;;1.60;1.50;;;23.20;64.80;;;;;;5035155;28;20452;-59
2022/05/08 14:38:30;;;;;;;1.30;1.20;;;23.10;65.40;;;;;;5034841;28;20985;-58
2022/05/08 14:40:59;;;;;;;1.30;1.20;;;23.00;65.50;;;;;;5035217;28;20445;-56
2022/05/08 14:43:27;;;;;;;1.13;1.13;;;23.00;65.60;;;;;;5034937;28;20907;-55
2022/05/08 14:45:54;;;;;;;1.37;1.27;;;23.00;65.70;;;;;;5034828;28;20445;-54
2022/05/08 14:48:21;;;;;;;1.20;1.17;;;23.00;65.70;;;;;;5034906;28;21087;-59
2022/05/08 14:50:48;;;;;;;1.23;1.00;;;23.00;65.80;;;;;;5035051;28;20961;-54
2022/05/08 14:53:15;;;;;;;1.33;1.00;;;23.00;66.50;;;;;;5034782;28;20453;-52
2022/05/08 14:55:43;;;;;;;0.73;0.73;;;23.00;65.70;;;;;;5034461;28;20949;-54
2022/05/08 14:58:12;;;;;;;1.33;1.20;;;23.10;65.60;;;;;;5034583;28;20484;-54
2022/05/08 15:00:40;;;;;;;1.13;0.97;;;23.00;65.40;;;;;;5034773;28;21024;-57
2022/05/08 15:03:08;;;;;;;1.30;1.20;;;23.10;65.40;;;;;;5034446;28;20445;-59
2022/05/08 15:05:35;;;;;;;1.03;1.00;;;23.10;65.90;;;;;;5034455;28;20480;-62
2022/05/08 15:08:01;;;;;;;1.30;1.30;;;23.20;66.20;;;;;;5034158;28;20480;-63
2022/05/08 15:10:28;;;;;;;1.47;1.37;;;23.20;65.90;;;;;;5034414;28;20927;-62
2022/05/08 15:12:55;;;;;;;0.90;0.90;;;23.30;65.60;;;;;;5034338;28;20953;-63
2022/05/08 15:15:22;;;;;;;1.23;1.00;;;23.30;65.30;;;;;;5033150;28;20667;-57
2022/05/08 15:20:34;;;;;;;1.57;1.10;;;23.40;64.90;;;;;;5034283;28;20937;-56
2022/05/08 15:23:02;;;;;;;0.90;0.90;;;23.40;65.00;;;;;;5033953;28;20444;-57
2022/05/08 15:25:29;;;;;;;1.23;0.90;;;23.40;64.70;;;;;;5034207;28;20468;-59
2022/05/08 15:27:56;;;;;;;0.77;0.77;;;23.40;64.50;;;;;;5033383;28;20494;-58
2022/05/08 15:30:23;;;;;;;1.60;0.90;;;23.40;64.40;;;;;;5034138;28;20969;-59
2022/05/08 15:32:51;;;;;;;1.23;1.17;;;23.40;64.40;;;;;;5033816;28;20449;-51
2022/05/08 15:35:18;;;;;;;1.33;1.30;;;23.50;64.30;;;;;;5034002;28;20447;-53
2022/05/08 15:37:46;;;;;;;1.20;1.20;;;23.50;64.30;;;;;;5033581;28;20492;-64
2022/05/08 15:40:13;;;;;;;1.40;1.30;;;23.50;64.30;;;;;;5033919;28;20546;-64
2022/05/08 15:42:40;;;;;;;0.80;0.80;;;23.40;64.00;;;;;;5033835;28;20823;-59
2022/05/08 15:45:08;;;;;;;0.87;0.87;;;23.40;65.10;;;;;;5034502;28;20477;-59
2022/05/08 15:47:36;;;;;;;2.63;1.60;;;23.40;65.10;;;;;;5033801;28;20442;-61
2022/05/08 15:50:05;;;;;;;1.50;0.80;;;23.50;65.10;;;;;;5033832;28;20449;-58
2022/05/08 15:52:32;;;;;;;1.07;1.07;;;23.50;65.20;;;;;;5033879;28;20449;-55
2022/05/08 15:54:59;;;;;;;1.90;1.17;;;23.50;65.10;;;;;;5033348;28;20958;-50
2022/05/08 15:57:27;;;;;;;1.10;1.10;;;23.50;65.10;;;;;;5033416;28;20484;-51
2022/05/08 15:59:54;;;;;;;1.17;1.17;;;23.60;65.30;;;;;;5033560;28;20829;-50
2022/05/08 16:02:21;;;;;;;1.10;1.00;;;23.60;65.10;;;;;;5033797;28;20799;-55
2022/05/08 16:04:48;;;;;;;0.83;0.83;;;23.60;64.90;;;;;;5033113;28;20445;-55
2022/05/08 16:07:19;;;;;;;1.30;1.20;;;23.60;64.60;;;;;;5033364;28;20484;-53
2022/05/08 16:09:45;;;;;;;1.03;1.03;;;23.60;64.60;;;;;;5033233;28;20481;-52
2022/05/08 16:12:12;;;;;;;1.80;1.70;;;23.60;64.60;;;;;;5033392;28;20454;-51
2022/05/08 16:23:13;;;;;;;1.00;1.00;;;23.50;64.40;;;;;;5011883;28;20441;-59
2022/05/08 16:25:42;;;;;;;1.23;1.10;;;23.50;64.40;;;;;;5032522;28;20448;-53
2022/05/08 16:28:09;;;;;;;0.97;0.97;;;23.50;64.50;;;;;;5033036;28;20460;-58
2022/05/08 16:30:35;;;;;;;0.90;0.90;;;23.50;64.40;;;;;;5033249;28;20437;-53
2022/05/08 16:33:02;;;;;;;0.77;0.77;;;23.50;64.40;;;;;;5032994;28;20452;-64
2022/05/08 16:35:30;;;;;;;1.10;1.00;;;23.50;64.40;;;;;;5032534;28;20452;-64
2022/05/08 16:37:58;;;;;;;0.77;0.60;;;23.40;64.30;;;;;;5032423;28;20485;-63
2022/05/08 16:40:24;;;;;;;0.80;0.80;;;23.50;64.40;;;;;;5031953;28;20453;-65
2022/05/08 16:42:54;;;;;;;0.80;0.80;;;23.50;64.40;;;;;;5032110;28;20464;-60
2022/05/08 16:45:22;;;;;;;1.13;1.07;;;23.50;64.40;;;;;;5031435;28;20457;-55
2022/05/08 16:47:48;;;;;;;1.00;1.00;;;23.50;64.40;;;;;;5032311;28;20827;-60
2022/05/08 16:50:16;;;;;;;0.90;0.90;;;23.50;64.30;;;;;;5032653;28;20456;-56
2022/05/08 16:52:43;;;;;;;1.20;1.20;;;23.50;64.30;;;;;;5032615;28;20449;-64
2022/05/08 16:55:11;;;;;;;1.00;0.90;;;23.50;64.30;;;;;;5031793;28;20445;-53
2022/05/08 16:57:38;;;;;;;0.90;0.90;;;23.60;64.20;;;;;;5032195;28;20485;-53
2022/05/08 17:00:06;;;;;;;0.65;0.65;;;23.60;64.00;;;;;;5031487;28;20441;-66
2022/05/08 17:02:33;;;;;;;2.40;1.60;;;23.70;64.20;;;;;;5032269;28;20293;-58
2022/05/08 17:05:00;;;;;;;1.33;0.90;;;23.80;63.70;;;;;;5032246;28;20536;-69
2022/05/08 17:07:29;;;;;;;1.10;1.00;;;23.80;63.00;;;;;;5031855;28;20448;-60
2022/05/08 17:09:56;;;;;;;0.90;0.90;;;23.80;62.70;;;;;;5032210;28;20441;-60
2022/05/08 17:12:24;;;;;;;1.07;1.07;;;23.80;62.50;;;;;;5032237;28;20445;-62
2022/05/08 17:14:51;;;;;;;0.87;0.87;;;23.80;62.60;;;;;;5031958;28;20445;-60
2022/05/08 17:17:19;;;;;;;0.80;0.80;;;23.80;63.30;;;;;;5031870;28;20453;-58
2022/05/08 17:19:46;;;;;;;1.23;0.87;;;23.80;62.40;;;;;;5031845;28;20595;-59
2022/05/08 17:22:13;;;;;;;0.70;0.70;;;23.80;62.40;;;;;;5031844;28;20801;-60
2022/05/08 17:24:40;;;;;;;1.80;1.00;;;23.80;62.60;;;;;;5031717;28;20453;-61
2022/05/08 17:29:54;;;;;;;0.90;0.87;;;23.80;62.40;;;;;;5032008;28;20441;-62
2022/05/08 17:32:22;;;;;;;0.90;0.90;;;23.80;62.20;;;;;;5031494;28;20931;-60
2022/05/08 17:34:48;;;;;;;1.00;0.90;;;23.80;62.20;;;;;;5012251;28;20540;-64
2022/05/08 17:37:15;;;;;;;0.77;0.77;;;23.80;62.20;;;;;;5011926;28;20492;-62
2022/05/08 17:39:42;;;;;;;1.57;0.97;;;23.80;62.10;;;;;;5011635;28;20548;-64
2022/05/08 17:42:09;;;;;;;0.93;0.90;;;23.80;62.00;;;;;;5012150;28;21008;-63
2022/05/08 17:44:36;;;;;;;1.40;1.30;;;23.80;62.00;;;;;;5027203;28;20449;-63
2022/05/08 17:47:05;;;;;;;1.50;1.20;;;23.90;62.30;;;;;;5031599;28;20867;-62
2022/05/08 17:49:31;;;;;;;0.70;0.70;;;23.90;62.10;;;;;;5031589;28;20489;-61
2022/05/08 17:51:58;;;;;;;1.27;0.70;;;23.90;61.80;;;;;;5031486;28;20449;-61
2022/05/08 17:54:25;;;;;;;1.30;1.20;;;23.90;61.70;;;;;;5031547;28;20445;-60
2022/05/08 17:56:52;;;;;;;0.70;0.70;;;24.00;62.10;;;;;;5031491;28;20441;-60
2022/05/08 17:59:19;;;;;;;0.93;0.93;;;23.90;61.70;;;;;;5031486;28;20571;-65
2022/05/08 18:01:45;;;;;;;1.10;1.10;;;23.80;62.00;;;;;;5031764;28;20440;-62
2022/05/08 18:06:58;;;;;;;1.70;1.17;;;23.60;62.80;;;;;;5031163;28;20444;-59
2022/05/08 18:09:25;;;;;;;1.67;1.60;;;23.50;62.90;;;;;;5033253;28;20472;-60
2022/05/08 18:11:51;;;;;;;3.10;0.90;;;23.50;63.00;;;;;;5032435;28;20449;-60
2022/05/08 18:14:18;;;;;;;1.00;1.00;;;23.50;63.20;;;;;;5034125;28;20453;-58
2022/05/08 18:16:46;;;;;;;0.93;0.90;;;23.50;63.30;;;;;;5032075;28;20528;-58
2022/05/08 18:19:14;;;;;;;1.10;1.00;;;23.40;63.30;;;;;;5031363;28;20568;-58
2022/05/08 18:21:40;;;;;;;1.00;1.00;;;23.40;63.40;;;;;;5033357;28;20449;-59
2022/05/08 18:24:08;;;;;;;1.30;0.97;;;23.40;63.40;;;;;;5033353;28;20488;-57
2022/05/08 18:26:37;;;;;;;0.90;0.90;;;23.40;64.20;;;;;;5033319;28;20814;-57
2022/05/08 18:29:05;;;;;;;1.30;1.17;;;23.40;63.40;;;;;;5033404;28;20461;-55
2022/05/08 18:31:33;;;;;;;0.90;0.90;;;23.40;63.50;;;;;;5031660;28;20788;-56
2022/05/08 18:34:00;;;;;;;0.80;0.80;;;23.50;63.70;;;;;;5031321;28;20507;-63
2022/05/08 18:36:28;;;;;;;1.07;1.07;;;23.60;64.10;;;;;;5031257;28;20639;-65
2022/05/08 18:39:00;;;;;;;1.40;1.30;;;23.70;63.60;;;;;;5030715;28;20477;-65
2022/05/08 18:41:27;;;;;;;0.90;0.90;;;23.80;63.00;;;;;;5031285;28;20544;-63
2022/05/08 18:43:54;;;;;;;0.90;0.70;;;23.90;62.50;;;;;;5031426;28;20441;-55
2022/05/08 18:46:23;;;;;;;2.13;1.03;;;23.90;62.20;;;;;;5030999;28;20449;-59
2022/05/08 18:49:19;;;;;;;1.00;1.00;;;23.90;62.20;;;;;;5030764;28;20465;-57
2022/05/08 18:51:38;;;;;;;0.67;0.60;;;23.90;62.20;;;;;;5030657;28;20446;-58
2022/05/08 18:54:05;;;;;;;1.20;0.87;;;24.00;62.20;;;;;;5031278;28;20449;-63
2022/05/08 18:56:32;;;;;;;1.30;1.23;;;24.00;62.20;;;;;;5030903;28;20445;-61
2022/05/08 18:58:59;;;;;;;3.80;1.93;;;24.00;62.10;;;;;;5030932;28;20492;-63
2022/05/08 19:01:26;;;;;;;1.00;0.97;;;24.00;62.00;;;;;;5030914;28;20445;-62
2022/05/08 19:03:54;;;;;;;0.80;0.80;;;24.00;61.90;;;;;;5033932;28;20441;-63
2022/05/08 19:06:21;;;;;;;0.87;0.87;;;24.10;61.80;;;;;;5034455;28;20452;-65
2022/05/08 19:08:49;;;;;;;1.20;0.77;;;24.10;61.60;;;;;;5034334;28;20473;-66
2022/05/08 19:11:16;;;;;;;0.97;0.97;;;24.10;61.50;;;;;;5034503;28;20503;-66
2022/05/08 19:13:43;;;;;;;0.80;0.80;;;24.10;61.50;;;;;;5035028;28;20503;-65
2022/05/08 19:16:10;;;;;;;1.30;1.20;;;24.10;61.30;;;;;;5034601;28;20445;-66
2022/05/08 19:18:36;;;;;;;0.83;0.83;;;24.10;61.20;;;;;;5034264;28;20495;-58
2022/05/08 19:21:03;;;;;;;1.07;1.07;;;24.10;60.80;;;;;;5034405;28;20943;-56
2022/05/08 19:23:30;;;;;;;0.90;0.90;;;23.90;60.70;;;;;;5034240;28;20464;-57
2022/05/08 19:25:59;;;;;;;1.67;1.57;;;23.80;61.10;;;;;;5033783;28;20969;-55
2022/05/08 19:28:26;;;;;;;0.80;0.80;;;23.70;61.40;;;;;;5034114;28;20571;-55
2022/05/08 19:37:58;;;;;;;0.80;0.80;;;23.60;61.60;;;;;;5034232;28;20471;-57
2022/05/08 19:39:09;;;;;;;2.40;0.90;;;23.40;62.50;;;;;;5033855;28;20530;-57